sensor_id;sensor_type;location;lat;lon;timestamp;P1;durP1;ratioP1;P2;durP2;ratioP2
6878;SDS011;3478;51.462;7.338;2022-08-18T00:04:35;44.80;;;36.03;;
6878;SDS011;3478;51.462;7.338;2022-08-18T00:09:39;43.67;;;35.87;;
6878;SDS011;3478;51.462;7.338;2022-08-18T00:14:42;44.70;;;38.80;;
6878;SDS011;3478;51.462;7.338;2022-08-18T00:19:45;48.87;;;37.37;;
6878;SDS011;3478;51.462;7.338;2022-08-18T00:24:49;45.20;;;36.83;;
6878;SDS011;3478;51.462;7.338;2022-08-18T00:29:53;45.40;;;37.60;;
6878;SDS011;3478;51.462;7.338;2022-08-18T00:34:56;44.67;;;36.47;;
6878;SDS011;3478;51.462;7.338;2022-08-18T00:39:59;44.03;;;37.87;;
6878;SDS011;3478;51.462;7.338;2022-08-18T00:45:03;42.83;;;36.47;;
6878;SDS011;3478;51.462;7.338;2022-08-18T00:50:06;47.40;;;37.33;;
6878;SDS011;3478;51.462;7.338;2022-08-18T00:55:10;44.10;;;37.30;;
6878;SDS011;3478;51.462;7.338;2022-08-18T01:00:13;50.33;;;40.10;;
6878;SDS011;3478;51.462;7.338;2022-08-18T01:05:17;47.10;;;37.97;;
6878;SDS011;3478;51.462;7.338;2022-08-18T01:10:25;56.27;;;42.80;;
6878;SDS011;3478;51.462;7.338;2022-08-18T01:15:27;51.73;;;40.73;;
6878;SDS011;3478;51.462;7.338;2022-08-18T01:20:32;47.70;;;39.60;;
6878;SDS011;3478;51.462;7.338;2022-08-18T01:25:56;50.70;;;39.30;;
6878;SDS011;3478;51.462;7.338;2022-08-18T01:31:01;55.53;;;42.17;;
6878;SDS011;3478;51.462;7.338;2022-08-18T01:36:05;57.60;;;43.97;;
6878;SDS011;3478;51.462;7.338;2022-08-18T01:41:16;51.53;;;41.43;;
6878;SDS011;3478;51.462;7.338;2022-08-18T01:46:18;50.37;;;39.40;;
6878;SDS011;3478;51.462;7.338;2022-08-18T01:51:20;51.03;;;41.13;;
6878;SDS011;3478;51.462;7.338;2022-08-18T01:56:24;50.07;;;40.73;;
6878;SDS011;3478;51.462;7.338;2022-08-18T02:01:27;48.37;;;38.43;;
6878;SDS011;3478;51.462;7.338;2022-08-18T02:06:28;49.53;;;39.00;;
6878;SDS011;3478;51.462;7.338;2022-08-18T02:11:32;49.70;;;39.70;;
6878;SDS011;3478;51.462;7.338;2022-08-18T02:16:34;47.33;;;37.73;;
6878;SDS011;3478;51.462;7.338;2022-08-18T02:21:35;50.50;;;38.93;;
6878;SDS011;3478;51.462;7.338;2022-08-18T02:26:39;56.27;;;40.03;;
6878;SDS011;3478;51.462;7.338;2022-08-18T02:31:42;53.97;;;41.57;;
6878;SDS011;3478;51.462;7.338;2022-08-18T02:36:44;57.53;;;43.57;;
6878;SDS011;3478;51.462;7.338;2022-08-18T02:41:47;60.90;;;43.57;;
6878;SDS011;3478;51.462;7.338;2022-08-18T02:46:50;79.37;;;49.60;;
6878;SDS011;3478;51.462;7.338;2022-08-18T02:51:53;86.87;;;53.10;;
6878;SDS011;3478;51.462;7.338;2022-08-18T02:56:57;88.93;;;55.07;;
6878;SDS011;3478;51.462;7.338;2022-08-18T03:01:58;67.40;;;47.60;;
6878;SDS011;3478;51.462;7.338;2022-08-18T03:07:01;69.30;;;48.90;;
6878;SDS011;3478;51.462;7.338;2022-08-18T03:12:06;64.87;;;43.50;;
6878;SDS011;3478;51.462;7.338;2022-08-18T03:17:09;64.67;;;44.53;;
6878;SDS011;3478;51.462;7.338;2022-08-18T03:22:14;63.93;;;43.43;;
6878;SDS011;3478;51.462;7.338;2022-08-18T03:27:17;66.57;;;44.97;;
6878;SDS011;3478;51.462;7.338;2022-08-18T03:32:19;72.70;;;47.83;;
6878;SDS011;3478;51.462;7.338;2022-08-18T03:37:21;67.03;;;46.03;;
6878;SDS011;3478;51.462;7.338;2022-08-18T03:42:24;68.23;;;44.67;;
6878;SDS011;3478;51.462;7.338;2022-08-18T03:47:26;70.33;;;45.50;;
6878;SDS011;3478;51.462;7.338;2022-08-18T03:52:27;58.53;;;41.30;;
6878;SDS011;3478;51.462;7.338;2022-08-18T03:57:31;62.13;;;42.40;;
6878;SDS011;3478;51.462;7.338;2022-08-18T04:02:33;64.50;;;44.90;;
6878;SDS011;3478;51.462;7.338;2022-08-18T04:07:35;64.30;;;44.43;;
6878;SDS011;3478;51.462;7.338;2022-08-18T04:12:38;79.40;;;50.00;;
6878;SDS011;3478;51.462;7.338;2022-08-18T04:17:41;82.47;;;49.37;;
6878;SDS011;3478;51.462;7.338;2022-08-18T04:22:45;79.87;;;48.00;;
6878;SDS011;3478;51.462;7.338;2022-08-18T04:27:48;83.03;;;50.63;;
6878;SDS011;3478;51.462;7.338;2022-08-18T04:32:50;93.57;;;51.77;;
6878;SDS011;3478;51.462;7.338;2022-08-18T04:37:52;89.50;;;52.73;;
6878;SDS011;3478;51.462;7.338;2022-08-18T04:42:55;88.50;;;51.50;;
6878;SDS011;3478;51.462;7.338;2022-08-18T04:47:57;111.10;;;56.10;;
6878;SDS011;3478;51.462;7.338;2022-08-18T04:58:03;107.70;;;55.00;;
6878;SDS011;3478;51.462;7.338;2022-08-18T05:03:05;114.40;;;57.93;;
6878;SDS011;3478;51.462;7.338;2022-08-18T05:08:06;116.07;;;61.73;;
6878;SDS011;3478;51.462;7.338;2022-08-18T05:13:10;100.87;;;54.73;;
6878;SDS011;3478;51.462;7.338;2022-08-18T05:18:15;115.77;;;57.60;;
6878;SDS011;3478;51.462;7.338;2022-08-18T05:23:18;96.80;;;55.30;;
6878;SDS011;3478;51.462;7.338;2022-08-18T05:28:22;113.43;;;58.80;;
6878;SDS011;3478;51.462;7.338;2022-08-18T05:33:24;108.43;;;55.80;;
6878;SDS011;3478;51.462;7.338;2022-08-18T05:38:40;95.57;;;52.37;;
6878;SDS011;3478;51.462;7.338;2022-08-18T05:43:52;96.50;;;51.87;;
6878;SDS011;3478;51.462;7.338;2022-08-18T05:48:55;92.67;;;49.70;;
6878;SDS011;3478;51.462;7.338;2022-08-18T05:53:56;84.30;;;48.00;;
6878;SDS011;3478;51.462;7.338;2022-08-18T05:59:20;102.63;;;53.87;;
6878;SDS011;3478;51.462;7.338;2022-08-18T06:04:28;102.63;;;54.87;;
6878;SDS011;3478;51.462;7.338;2022-08-18T06:09:36;108.10;;;55.47;;
6878;SDS011;3478;51.462;7.338;2022-08-18T06:14:43;102.70;;;55.10;;
6878;SDS011;3478;51.462;7.338;2022-08-18T06:19:47;100.43;;;54.07;;
6878;SDS011;3478;51.462;7.338;2022-08-18T06:24:59;130.97;;;60.50;;
6878;SDS011;3478;51.462;7.338;2022-08-18T06:30:09;121.20;;;55.63;;
6878;SDS011;3478;51.462;7.338;2022-08-18T06:35:17;100.97;;;52.90;;
6878;SDS011;3478;51.462;7.338;2022-08-18T06:40:26;100.13;;;50.57;;
6878;SDS011;3478;51.462;7.338;2022-08-18T06:45:32;94.50;;;47.67;;
6878;SDS011;3478;51.462;7.338;2022-08-18T06:50:39;98.47;;;48.67;;
6878;SDS011;3478;51.462;7.338;2022-08-18T06:55:46;96.27;;;48.00;;
6878;SDS011;3478;51.462;7.338;2022-08-18T07:00:55;90.40;;;49.37;;
6878;SDS011;3478;51.462;7.338;2022-08-18T07:06:01;89.43;;;46.50;;
6878;SDS011;3478;51.462;7.338;2022-08-18T07:11:10;106.73;;;49.00;;
6878;SDS011;3478;51.462;7.338;2022-08-18T07:16:16;85.77;;;43.17;;
6878;SDS011;3478;51.462;7.338;2022-08-18T07:21:31;88.33;;;44.83;;
6878;SDS011;3478;51.462;7.338;2022-08-18T07:32:03;92.87;;;46.60;;
6878;SDS011;3478;51.462;7.338;2022-08-18T07:37:14;90.07;;;45.30;;
6878;SDS011;3478;51.462;7.338;2022-08-18T07:42:20;85.93;;;43.13;;
6878;SDS011;3478;51.462;7.338;2022-08-18T07:47:34;89.60;;;42.47;;
6878;SDS011;3478;51.462;7.338;2022-08-18T07:52:45;89.00;;;43.57;;
6878;SDS011;3478;51.462;7.338;2022-08-18T07:57:52;77.50;;;41.57;;
6878;SDS011;3478;51.462;7.338;2022-08-18T08:03:08;73.17;;;37.93;;
6878;SDS011;3478;51.462;7.338;2022-08-18T08:08:29;79.27;;;42.20;;
6878;SDS011;3478;51.462;7.338;2022-08-18T08:13:45;78.03;;;41.13;;
6878;SDS011;3478;51.462;7.338;2022-08-18T08:19:01;78.77;;;40.07;;
6878;SDS011;3478;51.462;7.338;2022-08-18T08:24:12;78.70;;;40.33;;
6878;SDS011;3478;51.462;7.338;2022-08-18T08:29:21;80.17;;;43.00;;
6878;SDS011;3478;51.462;7.338;2022-08-18T08:34:33;73.70;;;42.83;;
6878;SDS011;3478;51.462;7.338;2022-08-18T08:39:40;74.77;;;43.10;;
6878;SDS011;3478;51.462;7.338;2022-08-18T08:44:47;74.07;;;41.37;;
6878;SDS011;3478;51.462;7.338;2022-08-18T08:49:57;77.77;;;41.63;;
6878;SDS011;3478;51.462;7.338;2022-08-18T08:55:05;70.63;;;39.50;;
6878;SDS011;3478;51.462;7.338;2022-08-18T09:00:11;68.33;;;38.70;;
6878;SDS011;3478;51.462;7.338;2022-08-18T09:05:17;59.93;;;37.60;;
6878;SDS011;3478;51.462;7.338;2022-08-18T09:10:34;63.63;;;39.37;;
6878;SDS011;3478;51.462;7.338;2022-08-18T09:15:55;57.67;;;36.10;;
6878;SDS011;3478;51.462;7.338;2022-08-18T09:21:16;53.07;;;35.93;;
6878;SDS011;3478;51.462;7.338;2022-08-18T09:26:37;54.27;;;37.23;;
6878;SDS011;3478;51.462;7.338;2022-08-18T09:31:42;56.80;;;36.30;;
6878;SDS011;3478;51.462;7.338;2022-08-18T09:36:56;49.60;;;33.93;;
6878;SDS011;3478;51.462;7.338;2022-08-18T09:42:06;53.73;;;37.57;;
6878;SDS011;3478;51.462;7.338;2022-08-18T09:47:11;51.20;;;35.00;;
6878;SDS011;3478;51.462;7.338;2022-08-18T09:58:13;55.60;;;36.60;;
6878;SDS011;3478;51.462;7.338;2022-08-18T10:03:21;49.07;;;35.50;;
6878;SDS011;3478;51.462;7.338;2022-08-18T10:19:36;48.47;;;34.97;;
6878;SDS011;3478;51.462;7.338;2022-08-18T10:24:51;44.33;;;32.73;;
6878;SDS011;3478;51.462;7.338;2022-08-18T10:29:58;44.93;;;33.27;;
6878;SDS011;3478;51.462;7.338;2022-08-18T10:35:00;48.17;;;34.23;;
6878;SDS011;3478;51.462;7.338;2022-08-18T10:40:03;46.70;;;35.87;;
6878;SDS011;3478;51.462;7.338;2022-08-18T10:45:18;45.93;;;34.10;;
6878;SDS011;3478;51.462;7.338;2022-08-18T10:50:24;48.97;;;35.17;;
6878;SDS011;3478;51.462;7.338;2022-08-18T10:55:42;46.63;;;35.00;;
6878;SDS011;3478;51.462;7.338;2022-08-18T11:00:53;48.50;;;33.90;;
6878;SDS011;3478;51.462;7.338;2022-08-18T11:06:05;48.53;;;34.47;;
6878;SDS011;3478;51.462;7.338;2022-08-18T11:11:12;47.17;;;33.10;;
6878;SDS011;3478;51.462;7.338;2022-08-18T11:16:27;51.43;;;39.90;;
6878;SDS011;3478;51.462;7.338;2022-08-18T11:21:38;45.50;;;37.27;;
6878;SDS011;3478;51.462;7.338;2022-08-18T11:26:44;46.23;;;38.57;;
6878;SDS011;3478;51.462;7.338;2022-08-18T11:31:48;47.37;;;37.73;;
6878;SDS011;3478;51.462;7.338;2022-08-18T11:36:54;44.00;;;35.77;;
6878;SDS011;3478;51.462;7.338;2022-08-18T11:41:58;42.10;;;34.37;;
6878;SDS011;3478;51.462;7.338;2022-08-18T11:47:14;43.67;;;34.10;;
6878;SDS011;3478;51.462;7.338;2022-08-18T11:52:18;56.73;;;37.47;;
6878;SDS011;3478;51.462;7.338;2022-08-18T11:57:28;46.47;;;35.10;;
6878;SDS011;3478;51.462;7.338;2022-08-18T12:02:42;44.47;;;36.07;;
6878;SDS011;3478;51.462;7.338;2022-08-18T12:07:44;50.93;;;41.73;;
6878;SDS011;3478;51.462;7.338;2022-08-18T12:12:47;46.33;;;36.67;;
6878;SDS011;3478;51.462;7.338;2022-08-18T12:17:52;46.70;;;37.37;;
6878;SDS011;3478;51.462;7.338;2022-08-18T12:22:54;46.20;;;35.93;;
6878;SDS011;3478;51.462;7.338;2022-08-18T12:27:57;41.30;;;34.33;;
6878;SDS011;3478;51.462;7.338;2022-08-18T12:33:00;42.80;;;35.70;;
6878;SDS011;3478;51.462;7.338;2022-08-18T12:38:02;44.67;;;37.30;;
6878;SDS011;3478;51.462;7.338;2022-08-18T12:43:04;48.90;;;35.50;;
6878;SDS011;3478;51.462;7.338;2022-08-18T12:48:07;47.87;;;36.67;;
6878;SDS011;3478;51.462;7.338;2022-08-18T12:53:10;42.50;;;35.47;;
6878;SDS011;3478;51.462;7.338;2022-08-18T12:58:12;41.27;;;33.70;;
6878;SDS011;3478;51.462;7.338;2022-08-18T13:03:16;40.27;;;32.47;;
6878;SDS011;3478;51.462;7.338;2022-08-18T13:08:18;44.40;;;32.77;;
6878;SDS011;3478;51.462;7.338;2022-08-18T13:13:22;30.83;;;27.57;;
6878;SDS011;3478;51.462;7.338;2022-08-18T13:18:25;36.83;;;30.43;;
6878;SDS011;3478;51.462;7.338;2022-08-18T13:23:28;27.73;;;24.87;;
6878;SDS011;3478;51.462;7.338;2022-08-18T13:28:32;28.03;;;23.60;;
6878;SDS011;3478;51.462;7.338;2022-08-18T13:33:35;22.87;;;20.50;;
6878;SDS011;3478;51.462;7.338;2022-08-18T13:38:39;21.50;;;19.23;;
6878;SDS011;3478;51.462;7.338;2022-08-18T13:43:42;18.10;;;16.40;;
6878;SDS011;3478;51.462;7.338;2022-08-18T13:48:47;18.47;;;16.50;;
6878;SDS011;3478;51.462;7.338;2022-08-18T13:53:48;18.00;;;16.20;;
6878;SDS011;3478;51.462;7.338;2022-08-18T13:58:51;17.47;;;15.67;;
6878;SDS011;3478;51.462;7.338;2022-08-18T14:03:54;16.67;;;14.90;;
6878;SDS011;3478;51.462;7.338;2022-08-18T14:08:56;15.80;;;14.47;;
6878;SDS011;3478;51.462;7.338;2022-08-18T14:13:58;14.00;;;12.43;;
6878;SDS011;3478;51.462;7.338;2022-08-18T14:19:02;14.50;;;13.10;;
6878;SDS011;3478;51.462;7.338;2022-08-18T14:24:22;13.30;;;12.33;;
6878;SDS011;3478;51.462;7.338;2022-08-18T14:29:42;13.20;;;12.20;;
6878;SDS011;3478;51.462;7.338;2022-08-18T14:34:47;12.63;;;11.40;;
6878;SDS011;3478;51.462;7.338;2022-08-18T14:39:50;11.07;;;10.27;;
6878;SDS011;3478;51.462;7.338;2022-08-18T14:44:52;10.03;;;9.30;;
6878;SDS011;3478;51.462;7.338;2022-08-18T14:49:56;9.63;;;8.93;;
6878;SDS011;3478;51.462;7.338;2022-08-18T14:54:59;11.43;;;10.63;;
6878;SDS011;3478;51.462;7.338;2022-08-18T15:00:02;8.03;;;7.53;;
6878;SDS011;3478;51.462;7.338;2022-08-18T15:05:08;9.10;;;8.43;;
6878;SDS011;3478;51.462;7.338;2022-08-18T15:10:12;8.77;;;8.17;;
6878;SDS011;3478;51.462;7.338;2022-08-18T15:15:16;9.80;;;9.20;;
6878;SDS011;3478;51.462;7.338;2022-08-18T15:20:21;8.20;;;7.70;;
6878;SDS011;3478;51.462;7.338;2022-08-18T15:25:24;7.23;;;6.83;;
6878;SDS011;3478;51.462;7.338;2022-08-18T15:30:49;6.60;;;6.30;;
6878;SDS011;3478;51.462;7.338;2022-08-18T15:35:53;6.57;;;6.23;;
6878;SDS011;3478;51.462;7.338;2022-08-18T15:40:56;5.80;;;5.50;;
6878;SDS011;3478;51.462;7.338;2022-08-18T15:46:00;5.80;;;5.40;;
6878;SDS011;3478;51.462;7.338;2022-08-18T15:51:03;6.17;;;5.80;;
6878;SDS011;3478;51.462;7.338;2022-08-18T15:56:10;6.50;;;6.20;;
6878;SDS011;3478;51.462;7.338;2022-08-18T16:01:13;5.83;;;5.63;;
6878;SDS011;3478;51.462;7.338;2022-08-18T16:06:18;6.80;;;6.20;;
6878;SDS011;3478;51.462;7.338;2022-08-18T16:11:22;6.53;;;6.13;;
6878;SDS011;3478;51.462;7.338;2022-08-18T16:16:24;5.60;;;5.33;;
6878;SDS011;3478;51.462;7.338;2022-08-18T16:21:28;5.30;;;5.00;;
6878;SDS011;3478;51.462;7.338;2022-08-18T16:26:30;5.10;;;4.90;;
6878;SDS011;3478;51.462;7.338;2022-08-18T16:31:31;6.30;;;5.10;;
6878;SDS011;3478;51.462;7.338;2022-08-18T16:36:35;5.30;;;4.80;;
6878;SDS011;3478;51.462;7.338;2022-08-18T16:41:37;4.93;;;4.60;;
6878;SDS011;3478;51.462;7.338;2022-08-18T16:46:38;4.80;;;4.60;;
6878;SDS011;3478;51.462;7.338;2022-08-18T16:51:42;6.20;;;4.37;;
6878;SDS011;3478;51.462;7.338;2022-08-18T16:56:44;4.50;;;4.20;;
6878;SDS011;3478;51.462;7.338;2022-08-18T17:01:46;5.07;;;4.73;;
6878;SDS011;3478;51.462;7.338;2022-08-18T17:07:07;4.47;;;4.17;;
6878;SDS011;3478;51.462;7.338;2022-08-18T17:12:09;4.63;;;4.33;;
6878;SDS011;3478;51.462;7.338;2022-08-18T17:17:11;5.13;;;4.73;;
6878;SDS011;3478;51.462;7.338;2022-08-18T17:22:14;4.00;;;3.80;;
6878;SDS011;3478;51.462;7.338;2022-08-18T17:27:17;4.90;;;4.50;;
6878;SDS011;3478;51.462;7.338;2022-08-18T17:32:23;4.50;;;4.20;;
6878;SDS011;3478;51.462;7.338;2022-08-18T17:37:31;4.70;;;4.40;;
6878;SDS011;3478;51.462;7.338;2022-08-18T17:42:36;4.73;;;4.53;;
6878;SDS011;3478;51.462;7.338;2022-08-18T17:47:40;5.27;;;4.97;;
6878;SDS011;3478;51.462;7.338;2022-08-18T17:52:53;8.03;;;5.40;;
6878;SDS011;3478;51.462;7.338;2022-08-18T17:58:01;5.67;;;5.37;;
6878;SDS011;3478;51.462;7.338;2022-08-18T18:03:06;4.40;;;4.10;;
6878;SDS011;3478;51.462;7.338;2022-08-18T18:08:09;4.87;;;4.60;;
6878;SDS011;3478;51.462;7.338;2022-08-18T18:13:13;5.50;;;5.10;;
6878;SDS011;3478;51.462;7.338;2022-08-18T18:18:24;5.37;;;4.87;;
6878;SDS011;3478;51.462;7.338;2022-08-18T18:23:37;4.43;;;4.03;;
6878;SDS011;3478;51.462;7.338;2022-08-18T18:28:41;4.37;;;4.17;;
6878;SDS011;3478;51.462;7.338;2022-08-18T18:33:43;5.30;;;4.80;;
6878;SDS011;3478;51.462;7.338;2022-08-18T18:38:47;4.53;;;3.77;;
6878;SDS011;3478;51.462;7.338;2022-08-18T18:44:08;4.60;;;4.20;;
6878;SDS011;3478;51.462;7.338;2022-08-18T18:49:15;4.33;;;4.00;;
6878;SDS011;3478;51.462;7.338;2022-08-18T18:54:28;4.77;;;4.27;;
6878;SDS011;3478;51.462;7.338;2022-08-18T18:59:42;4.50;;;4.30;;
6878;SDS011;3478;51.462;7.338;2022-08-18T19:05:00;4.67;;;4.37;;
6878;SDS011;3478;51.462;7.338;2022-08-18T19:10:12;4.10;;;3.90;;
6878;SDS011;3478;51.462;7.338;2022-08-18T19:15:18;5.10;;;4.60;;
6878;SDS011;3478;51.462;7.338;2022-08-18T19:20:24;5.00;;;4.23;;
6878;SDS011;3478;51.462;7.338;2022-08-18T19:25:31;3.73;;;3.53;;
6878;SDS011;3478;51.462;7.338;2022-08-18T19:30:36;4.43;;;4.23;;
6878;SDS011;3478;51.462;7.338;2022-08-18T19:35:44;4.80;;;4.40;;
6878;SDS011;3478;51.462;7.338;2022-08-18T19:40:57;4.60;;;4.20;;
6878;SDS011;3478;51.462;7.338;2022-08-18T19:46:08;4.80;;;4.50;;
6878;SDS011;3478;51.462;7.338;2022-08-18T19:51:18;4.67;;;4.23;;
6878;SDS011;3478;51.462;7.338;2022-08-18T19:56:35;7.00;;;4.90;;
6878;SDS011;3478;51.462;7.338;2022-08-18T20:02:00;4.83;;;4.53;;
6878;SDS011;3478;51.462;7.338;2022-08-18T20:07:16;5.20;;;4.70;;
6878;SDS011;3478;51.462;7.338;2022-08-18T20:12:58;7.77;;;4.03;;
6878;SDS011;3478;51.462;7.338;2022-08-18T20:18:18;7.13;;;4.40;;
6878;SDS011;3478;51.462;7.338;2022-08-18T20:23:29;5.27;;;4.77;;
6878;SDS011;3478;51.462;7.338;2022-08-18T20:28:35;4.90;;;4.63;;
6878;SDS011;3478;51.462;7.338;2022-08-18T20:33:40;4.50;;;4.27;;
6878;SDS011;3478;51.462;7.338;2022-08-18T20:38:46;4.73;;;4.27;;
6878;SDS011;3478;51.462;7.338;2022-08-18T20:43:52;5.73;;;5.20;;
6878;SDS011;3478;51.462;7.338;2022-08-18T20:49:02;7.63;;;4.50;;
6878;SDS011;3478;51.462;7.338;2022-08-18T20:54:17;4.80;;;4.40;;
6878;SDS011;3478;51.462;7.338;2022-08-18T20:59:34;5.40;;;5.00;;
6878;SDS011;3478;51.462;7.338;2022-08-18T21:04:44;5.00;;;4.53;;
6878;SDS011;3478;51.462;7.338;2022-08-18T21:09:49;5.33;;;4.90;;
6878;SDS011;3478;51.462;7.338;2022-08-18T21:14:55;5.10;;;4.70;;
6878;SDS011;3478;51.462;7.338;2022-08-18T21:19:59;6.30;;;5.70;;
6878;SDS011;3478;51.462;7.338;2022-08-18T21:25:03;7.30;;;5.97;;
6878;SDS011;3478;51.462;7.338;2022-08-18T21:30:15;4.80;;;4.40;;
6878;SDS011;3478;51.462;7.338;2022-08-18T21:35:20;6.03;;;5.53;;
6878;SDS011;3478;51.462;7.338;2022-08-18T21:40:33;5.67;;;4.70;;
6878;SDS011;3478;51.462;7.338;2022-08-18T21:45:42;4.60;;;4.30;;
6878;SDS011;3478;51.462;7.338;2022-08-18T21:50:50;5.73;;;4.90;;
6878;SDS011;3478;51.462;7.338;2022-08-18T21:55:57;5.33;;;4.97;;
6878;SDS011;3478;51.462;7.338;2022-08-18T22:01:09;7.60;;;5.60;;
6878;SDS011;3478;51.462;7.338;2022-08-18T22:06:16;4.80;;;4.37;;
6878;SDS011;3478;51.462;7.338;2022-08-18T22:11:29;9.03;;;5.17;;
6878;SDS011;3478;51.462;7.338;2022-08-18T22:16:51;5.47;;;5.17;;
6878;SDS011;3478;51.462;7.338;2022-08-18T22:21:55;5.77;;;5.37;;
6878;SDS011;3478;51.462;7.338;2022-08-18T22:27:02;6.50;;;6.03;;
6878;SDS011;3478;51.462;7.338;2022-08-18T22:32:09;4.60;;;4.30;;
6878;SDS011;3478;51.462;7.338;2022-08-18T22:37:11;8.17;;;6.10;;
6878;SDS011;3478;51.462;7.338;2022-08-18T22:42:18;6.57;;;6.17;;
6878;SDS011;3478;51.462;7.338;2022-08-18T22:47:22;5.90;;;5.40;;
6878;SDS011;3478;51.462;7.338;2022-08-18T22:52:25;5.50;;;5.03;;
6878;SDS011;3478;51.462;7.338;2022-08-18T22:57:30;5.00;;;4.70;;
6878;SDS011;3478;51.462;7.338;2022-08-18T23:02:34;6.30;;;5.07;;
6878;SDS011;3478;51.462;7.338;2022-08-18T23:07:36;7.10;;;5.40;;
6878;SDS011;3478;51.462;7.338;2022-08-18T23:12:38;6.27;;;5.17;;
6878;SDS011;3478;51.462;7.338;2022-08-18T23:17:42;6.20;;;5.80;;
6878;SDS011;3478;51.462;7.338;2022-08-18T23:22:44;6.13;;;5.60;;
6878;SDS011;3478;51.462;7.338;2022-08-18T23:27:46;6.27;;;5.87;;
6878;SDS011;3478;51.462;7.338;2022-08-18T23:32:49;7.70;;;6.97;;
6878;SDS011;3478;51.462;7.338;2022-08-18T23:37:51;8.07;;;7.30;;
6878;SDS011;3478;51.462;7.338;2022-08-18T23:42:54;9.17;;;8.40;;
6878;SDS011;3478;51.462;7.338;2022-08-18T23:47:57;8.00;;;7.40;;
6878;SDS011;3478;51.462;7.338;2022-08-18T23:53:00;9.83;;;9.13;;
6878;SDS011;3478;51.462;7.338;2022-08-18T23:58:02;11.67;;;10.67;;
